createdAt,value
2019-01-26T00:01:44.354Z,82.43
2019-01-26T00:04:12.972Z,82.71
2019-01-26T00:06:44.757Z,83.20
2019-01-26T00:09:16.357Z,83.91
2019-01-26T00:11:44.924Z,84.27
2019-01-26T00:14:16.284Z,84.50
2019-01-26T00:16:44.851Z,84.37
2019-01-26T00:19:14.299Z,84.87
2019-01-26T00:21:42.994Z,84.32
2019-01-26T00:24:11.611Z,84.29
2019-01-26T00:26:40.266Z,84.45
2019-01-26T00:29:09.417Z,84.67
2019-01-26T00:31:38.022Z,84.87
2019-01-26T00:34:06.913Z,85.80
2019-01-26T00:36:38.494Z,86.14
2019-01-26T00:39:09.870Z,85.81
2019-01-26T00:41:38.865Z,85.78
2019-01-26T00:44:07.480Z,85.62
2019-01-26T00:46:36.493Z,85.79
2019-01-26T00:49:05.507Z,86.20
2019-01-26T00:51:34.140Z,86.41
2019-01-26T00:54:02.879Z,86.01
2019-01-26T00:56:34.463Z,86.55
2019-01-26T00:59:03.090Z,86.49
2019-01-26T01:01:31.715Z,86.78
2019-01-26T01:04:00.510Z,86.45
2019-01-26T01:06:29.300Z,87.02
2019-01-26T01:08:57.898Z,87.17
2019-01-26T01:11:29.563Z,86.82
2019-01-26T01:14:00.851Z,86.69
2019-01-26T01:16:36.040Z,86.78
2019-01-26T01:19:03.659Z,86.94
2019-01-26T01:21:32.501Z,87.10
2019-01-26T01:24:01.071Z,87.62
2019-01-26T01:26:29.683Z,87.90
2019-01-26T01:29:01.497Z,88.34
2019-01-26T01:31:32.707Z,88.14
2019-01-26T01:34:04.315Z,88.22
2019-01-26T01:36:32.978Z,88.50
2019-01-26T01:39:01.904Z,88.32
2019-01-26T01:41:33.338Z,88.37
2019-01-26T01:44:04.961Z,88.05
2019-01-26T01:46:33.858Z,88.36
2019-01-26T01:49:02.491Z,88.77
2019-01-26T01:51:34.107Z,88.97
2019-01-26T01:54:05.773Z,88.59
2019-01-26T01:56:34.359Z,88.90
2019-01-26T01:59:05.871Z,89.40
2019-01-26T02:01:37.243Z,89.55
2019-01-26T02:04:06.179Z,90.11
2019-01-26T02:06:38.011Z,90.40
2019-01-26T02:09:08.034Z,90.64
2019-01-26T02:11:39.405Z,91.03
2019-01-26T02:14:10.991Z,91.16
2019-01-26T02:16:42.491Z,91.13
2019-01-26T02:19:11.369Z,91.19
2019-01-26T02:21:39.986Z,91.31
2019-01-26T02:24:08.596Z,91.39
2019-01-26T02:26:40.202Z,91.71
2019-01-26T02:29:12.357Z,92.02
2019-01-26T02:31:43.691Z,91.75
2019-01-26T02:34:12.258Z,91.61
2019-01-26T02:36:44.012Z,91.67
2019-01-26T02:39:12.577Z,91.81
2019-01-26T02:41:41.185Z,91.89
2019-01-26T02:44:12.501Z,91.92
2019-01-26T02:46:41.076Z,92.11
2019-01-26T02:49:12.772Z,91.99
2019-01-26T02:51:41.317Z,92.24
2019-01-26T02:54:10.310Z,92.54
2019-01-26T02:56:38.990Z,92.46
2019-01-26T02:59:10.617Z,92.67
2019-01-26T03:01:42.215Z,93.10
2019-01-26T03:04:13.808Z,93.62
2019-01-26T03:06:42.414Z,93.97
2019-01-26T03:09:11.110Z,94.37
2019-01-26T03:11:39.725Z,94.67
2019-01-26T03:14:08.318Z,95.00
2019-01-26T03:16:36.930Z,95.26
2019-01-26T03:19:05.775Z,95.26
2019-01-26T03:21:34.692Z,95.29
2019-01-26T03:24:06.483Z,95.58
2019-01-26T03:26:35.085Z,95.67
2019-01-26T03:29:03.728Z,95.77
2019-01-26T03:31:32.346Z,95.89
2019-01-26T03:34:03.672Z,95.82
2019-01-26T03:36:32.288Z,95.93
2019-01-26T03:39:05.343Z,96.01
2019-01-26T03:41:33.941Z,96.14
2019-01-26T03:44:02.508Z,96.38
2019-01-26T03:46:31.077Z,96.35
2019-01-26T03:49:00.070Z,96.47
2019-01-26T03:51:28.678Z,96.54
2019-01-26T03:54:00.258Z,96.60
2019-01-26T03:56:28.994Z,96.53
2019-01-26T03:58:58.056Z,96.49
2019-01-26T04:01:29.352Z,96.51
2019-01-26T04:03:58.537Z,96.48
2019-01-26T04:06:27.145Z,96.55
2019-01-26T04:08:59.092Z,96.68
2019-01-26T04:11:27.639Z,96.83
2019-01-26T04:13:59.018Z,96.93
2019-01-26T04:16:30.468Z,97.04
2019-01-26T04:19:01.811Z,96.92
2019-01-26T04:21:33.382Z,96.90
2019-01-26T04:24:05.059Z,97.00
2019-01-26T04:26:33.618Z,97.12
2019-01-26T04:29:05.201Z,97.29
2019-01-26T04:31:33.846Z,97.43
2019-01-26T04:34:02.825Z,97.42
2019-01-26T04:36:34.310Z,97.47
2019-01-26T04:39:07.969Z,97.48
2019-01-26T04:41:36.622Z,97.47
2019-01-26T04:44:05.417Z,97.50
2019-01-26T04:46:34.020Z,97.41
2019-01-26T04:49:05.617Z,97.45
2019-01-26T04:51:34.224Z,97.34
2019-01-26T04:54:05.811Z,97.32
2019-01-26T04:56:34.411Z,97.37
2019-01-26T04:59:03.036Z,97.30
2019-01-26T05:01:32.584Z,97.26
2019-01-26T05:04:04.603Z,97.21
2019-01-26T05:06:33.212Z,97.50
2019-01-26T05:09:07.803Z,97.53
2019-01-26T05:11:39.136Z,97.48
2019-01-26T05:14:07.690Z,97.38
2019-01-26T05:16:36.316Z,97.33
2019-01-26T05:19:04.997Z,97.35
2019-01-26T05:21:36.601Z,97.52
2019-01-26T05:24:07.838Z,97.57
2019-01-26T05:26:36.455Z,97.50
2019-01-26T05:29:08.527Z,97.40
2019-01-26T05:31:37.091Z,97.34
2019-01-26T05:34:08.687Z,97.08
2019-01-26T05:36:37.303Z,96.76
2019-01-26T05:39:08.070Z,96.78
2019-01-26T05:41:39.619Z,96.83
2019-01-26T05:44:11.231Z,96.90
2019-01-26T05:46:42.473Z,96.98
2019-01-26T05:49:11.152Z,97.06
2019-01-26T05:51:39.710Z,97.11
2019-01-26T05:54:08.329Z,97.12
2019-01-26T05:56:37.326Z,97.33
2019-01-26T05:59:08.987Z,97.37
2019-01-26T06:01:41.236Z,97.52
2019-01-26T06:04:09.875Z,97.47
2019-01-26T06:06:41.590Z,97.31
2019-01-26T06:09:13.049Z,97.37
2019-01-26T06:11:41.727Z,97.37
2019-01-26T06:14:13.055Z,97.43
2019-01-26T06:16:41.657Z,97.61
2019-01-26T06:19:10.487Z,97.84
2019-01-26T06:21:39.095Z,98.08
2019-01-26T06:24:07.686Z,98.23
2019-01-26T06:26:36.303Z,98.31
2019-01-26T06:29:05.027Z,98.43
2019-01-26T06:31:36.649Z,98.70
2019-01-26T06:34:05.203Z,98.91
2019-01-26T06:36:36.594Z,99.06
2019-01-26T06:39:08.536Z,99.07
2019-01-26T06:41:40.185Z,99.00
2019-01-26T06:44:11.793Z,98.95
2019-01-26T06:46:43.329Z,98.90
2019-01-26T06:49:12.514Z,98.89
2019-01-26T06:51:42.815Z,98.89
2019-01-26T06:54:11.447Z,98.92
2019-01-26T06:56:43.035Z,98.83
2019-01-26T06:59:14.860Z,98.79
2019-01-26T07:01:46.424Z,98.68
2019-01-26T07:04:19.655Z,98.52
2019-01-26T07:06:52.529Z,98.47
2019-01-26T07:09:24.434Z,98.44
2019-01-26T07:11:53.053Z,98.33
2019-01-26T07:14:21.660Z,98.43
2019-01-26T07:16:50.249Z,98.59
2019-01-26T07:19:22.608Z,98.71
2019-01-26T07:21:54.294Z,98.73
2019-01-26T07:24:24.861Z,98.75
2019-01-26T07:26:53.531Z,98.85
2019-01-26T07:29:25.161Z,98.94
2019-01-26T07:31:56.462Z,99.06
2019-01-26T07:34:27.889Z,99.04
2019-01-26T07:36:56.514Z,99.09
2019-01-26T07:39:27.930Z,99.12
2019-01-26T07:41:56.859Z,99.17
2019-01-26T07:44:28.217Z,99.20
2019-01-26T07:46:56.816Z,99.22
2019-01-26T07:49:26.339Z,99.35
2019-01-26T07:51:54.937Z,99.33
2019-01-26T07:54:26.456Z,99.36
2019-01-26T07:56:55.012Z,99.59
2019-01-26T07:59:25.147Z,99.62
2019-01-26T08:01:56.376Z,99.66
2019-01-26T08:04:27.928Z,99.63
2019-01-26T08:06:59.158Z,99.71
2019-01-26T08:09:30.523Z,99.81
2019-01-26T08:12:02.030Z,99.95
2019-01-26T08:14:33.304Z,99.93
2019-01-26T08:17:05.607Z,99.95
2019-01-26T08:19:36.918Z,99.84
2019-01-26T08:22:05.899Z,99.71
2019-01-26T08:24:37.647Z,99.53
2019-01-26T08:27:06.241Z,99.51
2019-01-26T08:29:35.109Z,99.67
2019-01-26T08:32:06.441Z,99.76
2019-01-26T08:34:35.007Z,99.75
2019-01-26T08:37:03.604Z,99.71
2019-01-26T08:39:35.202Z,99.77
2019-01-26T08:42:06.585Z,99.84
2019-01-26T08:44:38.460Z,99.78
2019-01-26T08:47:07.121Z,99.69
2019-01-26T08:49:36.631Z,99.65
2019-01-26T08:52:05.365Z,99.63
2019-01-26T08:54:36.748Z,99.67
2019-01-26T08:57:08.544Z,99.74
2019-01-26T08:59:37.102Z,99.75
2019-01-26T09:02:10.034Z,99.58
2019-01-26T09:04:38.626Z,99.35
2019-01-26T09:07:09.955Z,99.12
2019-01-26T09:09:38.550Z,98.75
2019-01-26T09:12:07.099Z,98.67
2019-01-26T09:14:38.913Z,98.67
2019-01-26T09:17:07.566Z,98.74
2019-01-26T09:19:38.255Z,99.00
2019-01-26T09:22:09.693Z,99.19
2019-01-26T09:24:41.284Z,99.21
2019-01-26T09:27:10.287Z,99.13
2019-01-26T09:29:38.891Z,99.17
2019-01-26T09:32:07.642Z,99.18
2019-01-26T09:34:37.406Z,99.18
2019-01-26T09:37:08.788Z,99.18
2019-01-26T09:39:37.372Z,99.11
2019-01-26T09:42:09.262Z,99.04
2019-01-26T09:44:40.998Z,98.86
2019-01-26T09:47:09.554Z,98.70
2019-01-26T09:49:38.221Z,98.79
2019-01-26T09:52:07.035Z,98.82
2019-01-26T09:54:35.761Z,98.84
2019-01-26T09:57:04.469Z,98.84
2019-01-26T09:59:35.894Z,98.83
2019-01-26T10:02:04.631Z,98.72
2019-01-26T10:04:36.237Z,98.60
2019-01-26T10:07:05.208Z,98.47
2019-01-26T10:09:34.142Z,98.43
2019-01-26T10:12:03.163Z,98.48
2019-01-26T10:14:34.854Z,98.61
2019-01-26T10:17:06.548Z,98.57
2019-01-26T10:19:37.978Z,98.43
2019-01-26T10:22:09.718Z,98.22
2019-01-26T10:24:38.328Z,98.09
2019-01-26T10:27:07.142Z,97.97
2019-01-26T10:29:38.928Z,98.02
2019-01-26T10:32:10.506Z,98.04
2019-01-26T10:34:39.113Z,97.98
2019-01-26T10:37:09.508Z,97.95
2019-01-26T10:39:41.356Z,97.94
2019-01-26T10:42:11.608Z,97.83
2019-01-26T10:44:40.569Z,97.73
2019-01-26T10:47:09.338Z,97.67
2019-01-26T10:49:37.924Z,97.74
2019-01-26T10:52:06.659Z,97.74
2019-01-26T10:54:38.237Z,97.83
2019-01-26T10:57:07.277Z,97.73
2019-01-26T10:59:38.747Z,97.86
2019-01-26T11:02:10.581Z,97.95
2019-01-26T11:04:39.549Z,98.00
2019-01-26T11:07:10.890Z,98.01
2019-01-26T11:09:42.176Z,97.96
2019-01-26T11:12:13.650Z,97.84
2019-01-26T11:14:45.242Z,97.77
2019-01-26T11:17:17.043Z,97.84
2019-01-26T11:19:48.331Z,97.62
2019-01-26T11:22:20.024Z,97.52
2019-01-26T11:24:48.596Z,97.58
2019-01-26T11:27:17.755Z,97.57
2019-01-26T11:29:49.477Z,97.57
2019-01-26T11:32:22.693Z,97.69
2019-01-26T11:34:51.374Z,97.85
2019-01-26T11:37:24.500Z,97.87
2019-01-26T11:39:57.517Z,97.93
2019-01-26T11:42:27.660Z,97.89
2019-01-26T11:45:14.391Z,97.73
2019-01-26T11:47:43.003Z,97.66
2019-01-26T11:50:13.351Z,97.62
2019-01-26T11:52:41.963Z,97.67
2019-01-26T11:55:12.321Z,97.63
2019-01-26T11:57:40.943Z,97.53
2019-01-26T12:00:14.385Z,97.09
2019-01-26T12:02:45.027Z,97.00
2019-01-26T12:05:15.275Z,96.81
2019-01-26T12:07:43.835Z,96.69
2019-01-26T12:10:12.722Z,96.83
2019-01-26T12:12:44.504Z,96.69
2019-01-26T12:15:14.734Z,96.58
2019-01-26T12:17:46.482Z,96.22
2019-01-26T12:20:17.313Z,95.76
2019-01-26T12:22:46.277Z,95.83
2019-01-26T12:25:14.996Z,95.62
2019-01-26T12:27:46.557Z,95.74
2019-01-26T12:30:15.869Z,96.08
2019-01-26T12:32:44.540Z,96.08
2019-01-26T12:35:16.263Z,95.88
2019-01-26T12:37:45.014Z,95.91
2019-01-26T12:40:16.698Z,96.02
2019-01-26T12:42:45.320Z,95.90
2019-01-26T12:45:22.498Z,95.92
2019-01-26T12:47:53.329Z,96.04
2019-01-26T12:50:25.426Z,96.28
2019-01-26T12:52:54.389Z,96.34
2019-01-26T12:55:24.501Z,96.45
2019-01-26T12:57:56.097Z,96.65
2019-01-26T13:00:26.280Z,96.58
2019-01-26T13:02:54.894Z,96.61
2019-01-26T13:05:27.388Z,96.64
2019-01-26T13:07:58.901Z,96.81
2019-01-26T13:10:36.651Z,96.78
2019-01-26T13:13:06.898Z,96.62
2019-01-26T13:15:38.465Z,96.30
2019-01-26T13:18:07.285Z,96.18
2019-01-26T13:20:38.646Z,96.08
2019-01-26T13:23:07.254Z,96.10
2019-01-26T13:25:36.334Z,96.54
2019-01-26T13:28:05.387Z,96.38
2019-01-26T13:30:33.938Z,96.36
2019-01-26T13:33:05.676Z,96.46
2019-01-26T13:35:34.400Z,96.35
2019-01-26T13:38:06.091Z,96.35
2019-01-26T13:40:37.784Z,96.63
2019-01-26T13:43:06.994Z,96.60
2019-01-26T13:45:38.414Z,96.57
2019-01-26T13:48:07.224Z,96.62
2019-01-26T13:50:36.376Z,96.60
2019-01-26T13:53:05.305Z,96.66
2019-01-26T13:55:36.947Z,96.58
2019-01-26T13:58:08.414Z,96.33
2019-01-26T14:00:38.010Z,96.28
2019-01-26T14:03:07.202Z,96.25
2019-01-26T14:05:39.179Z,96.14
2019-01-26T14:08:07.894Z,95.99
2019-01-26T14:10:39.478Z,96.02
2019-01-26T14:13:08.078Z,96.07
2019-01-26T14:15:36.730Z,96.19
2019-01-26T14:18:05.478Z,96.05
2019-01-26T14:20:34.059Z,96.11
2019-01-26T14:23:02.832Z,96.13
2019-01-26T14:25:31.539Z,96.37
2019-01-26T14:28:00.253Z,96.82
2019-01-26T14:30:40.311Z,96.78
2019-01-26T14:33:11.938Z,96.68
2019-01-26T14:35:40.524Z,96.65
2019-01-26T14:38:12.157Z,96.62
2019-01-26T14:40:43.632Z,96.67
2019-01-26T14:43:12.246Z,96.68
2019-01-26T14:45:40.832Z,96.64
2019-01-26T14:48:09.822Z,96.61
2019-01-26T14:50:39.371Z,96.53
2019-01-26T14:53:08.196Z,96.47
2019-01-26T14:55:36.817Z,96.48
2019-01-26T14:58:08.422Z,96.60
2019-01-26T15:00:40.085Z,96.86
2019-01-26T15:03:08.750Z,97.00
2019-01-26T15:05:37.790Z,97.01
2019-01-26T15:08:06.531Z,97.09
2019-01-26T15:10:35.147Z,97.23
2019-01-26T15:13:03.862Z,97.44
2019-01-26T15:15:35.427Z,97.57
2019-01-26T15:18:04.577Z,97.73
2019-01-26T15:20:38.735Z,97.69
2019-01-26T15:23:08.589Z,97.71
2019-01-26T15:25:40.170Z,97.83
2019-01-26T15:28:08.779Z,97.99
2019-01-26T15:30:41.482Z,98.05
2019-01-26T15:33:12.286Z,98.12
2019-01-26T15:35:40.981Z,98.25
2019-01-26T15:38:09.724Z,98.43
2019-01-26T15:40:38.352Z,98.53
2019-01-26T15:43:07.180Z,98.58
2019-01-26T15:45:43.679Z,98.68
2019-01-26T15:48:12.357Z,98.83
2019-01-26T15:50:42.033Z,98.92
2019-01-26T15:53:11.278Z,99.09
2019-01-26T15:55:39.816Z,99.36
2019-01-26T15:58:08.481Z,99.49
2019-01-26T16:00:39.946Z,99.60
2019-01-26T16:03:08.981Z,99.64
2019-01-26T16:05:40.791Z,99.71
2019-01-26T16:08:09.851Z,99.80
2019-01-26T16:10:41.106Z,99.79
2019-01-26T16:13:12.347Z,99.80
2019-01-26T16:15:40.915Z,99.86
2019-01-26T16:18:11.961Z,99.89
2019-01-26T16:20:43.357Z,99.97
2019-01-26T16:23:15.040Z,100.00
2019-01-26T16:25:46.555Z,100.00
2019-01-26T16:28:18.208Z,100.00
2019-01-26T16:30:46.757Z,99.96
2019-01-26T16:33:18.100Z,99.94
2019-01-26T16:35:49.617Z,99.92
2019-01-26T16:38:21.005Z,99.91
2019-01-26T16:40:52.835Z,99.92
2019-01-26T16:43:24.229Z,99.99
2019-01-26T16:45:54.793Z,100.00
2019-01-26T16:48:26.269Z,100.00
2019-01-26T16:50:54.880Z,100.00
2019-01-26T16:53:26.363Z,100.00
2019-01-26T16:55:57.764Z,100.00
2019-01-26T16:58:26.354Z,100.00
2019-01-26T17:00:57.928Z,100.00
2019-01-26T17:03:26.911Z,100.00
2019-01-26T17:05:55.553Z,100.00
2019-01-26T17:08:26.839Z,100.00
2019-01-26T17:10:55.436Z,100.00
2019-01-26T17:13:24.580Z,100.00
2019-01-26T17:15:56.277Z,100.00
2019-01-26T17:18:24.990Z,100.00
2019-01-26T17:20:56.457Z,100.00
2019-01-26T17:23:25.425Z,100.00
2019-01-26T17:25:58.737Z,100.00
2019-01-26T17:28:30.046Z,100.00
2019-01-26T17:30:58.640Z,100.00
2019-01-26T17:33:27.299Z,100.00
2019-01-26T17:35:55.885Z,100.00
2019-01-26T17:38:24.435Z,100.00
2019-01-26T17:40:54.958Z,100.00
2019-01-26T17:43:25.197Z,100.00
2019-01-26T17:45:55.359Z,100.00
2019-01-26T17:48:26.866Z,100.00
2019-01-26T17:50:55.477Z,100.00
2019-01-26T17:53:27.136Z,100.00
2019-01-26T17:55:55.735Z,100.00
2019-01-26T17:58:24.286Z,100.00
2019-01-26T18:00:56.421Z,100.00
2019-01-26T18:03:25.078Z,100.00
2019-01-26T18:05:55.290Z,100.00
2019-01-26T18:08:29.935Z,100.00
2019-01-26T18:10:58.489Z,100.00
2019-01-26T18:13:27.091Z,100.00
2019-01-26T18:15:55.640Z,100.00
2019-01-26T18:18:24.688Z,100.00
2019-01-26T18:20:56.355Z,100.00
2019-01-26T18:23:25.835Z,100.00
2019-01-26T18:25:55.056Z,100.00
2019-01-26T18:28:25.147Z,100.00
2019-01-26T18:30:56.651Z,100.00
2019-01-26T18:33:25.311Z,100.00
2019-01-26T18:35:56.609Z,100.00
2019-01-26T18:38:25.164Z,100.00
2019-01-26T18:40:56.611Z,100.00
2019-01-26T18:43:25.234Z,100.00
2019-01-26T18:45:57.018Z,100.00
2019-01-26T18:48:25.742Z,100.00
2019-01-26T18:50:56.417Z,100.00
2019-01-26T18:53:25.189Z,100.00
2019-01-26T18:55:56.532Z,100.00
2019-01-26T18:58:25.135Z,100.00
2019-01-26T19:01:00.117Z,100.00
2019-01-26T19:03:34.783Z,100.00
2019-01-26T19:06:03.492Z,100.00
2019-01-26T19:08:32.143Z,100.00
2019-01-26T19:11:00.779Z,100.00
2019-01-26T19:13:32.375Z,100.00
2019-01-26T19:16:01.172Z,100.00
2019-01-26T19:18:33.004Z,100.00
2019-01-26T19:21:04.453Z,100.00
2019-01-26T19:23:35.704Z,100.00
2019-01-26T19:26:04.965Z,100.00
2019-01-26T19:28:36.210Z,100.00
2019-01-26T19:31:04.943Z,100.00
2019-01-26T19:33:36.804Z,100.00
2019-01-26T19:36:05.897Z,100.00
2019-01-26T19:38:34.506Z,100.00
2019-01-26T19:41:03.116Z,100.00
2019-01-26T19:43:31.679Z,100.00
2019-01-26T19:46:00.704Z,100.00
2019-01-26T19:48:29.350Z,100.00
2019-01-26T19:50:58.406Z,100.00
2019-01-26T19:53:27.129Z,100.00
2019-01-26T19:55:58.635Z,100.00
2019-01-26T19:58:27.274Z,100.00
2019-01-26T20:00:56.097Z,100.00
2019-01-26T20:03:24.712Z,100.00
2019-01-26T20:05:55.991Z,100.00
2019-01-26T20:08:25.003Z,100.00
2019-01-26T20:10:58.099Z,100.00
2019-01-26T20:13:29.227Z,100.00
2019-01-26T20:15:57.815Z,100.00
2019-01-26T20:18:26.520Z,100.00
2019-01-26T20:20:55.201Z,100.00
2019-01-26T20:23:29.680Z,100.00
2019-01-26T20:26:01.492Z,100.00
2019-01-26T20:28:33.246Z,100.00
2019-01-26T20:31:01.866Z,100.00
2019-01-26T20:33:30.417Z,100.00
2019-01-26T20:35:59.393Z,100.00
2019-01-26T20:38:38.827Z,100.00
2019-01-26T20:41:14.172Z,100.00
2019-01-26T20:43:54.478Z,100.00
2019-01-26T20:46:44.662Z,100.00
2019-01-26T20:49:25.211Z,100.00
2019-01-26T20:52:01.716Z,100.00
2019-01-26T20:54:46.062Z,100.00
2019-01-26T20:57:34.006Z,100.00
2019-01-26T21:00:03.052Z,100.00
2019-01-26T21:02:31.708Z,100.00
2019-01-26T21:05:00.381Z,100.00
2019-01-26T21:07:31.981Z,100.00
2019-01-26T21:10:00.531Z,100.00
2019-01-26T21:12:29.124Z,100.00
2019-01-26T21:15:04.408Z,100.00
2019-01-26T21:17:28.049Z,100.00
2019-01-26T21:19:56.597Z,100.00
2019-01-26T21:22:25.584Z,100.00
2019-01-26T21:24:54.146Z,100.00
2019-01-26T21:27:22.851Z,100.00
2019-01-26T21:29:54.493Z,100.00
2019-01-26T21:32:25.890Z,100.00
2019-01-26T21:34:54.569Z,100.00
2019-01-26T21:37:24.522Z,100.00
2019-01-26T21:40:16.544Z,100.00
2019-01-26T21:42:45.182Z,100.00
2019-01-26T21:45:15.521Z,100.00
2019-01-26T21:47:44.403Z,100.00
2019-01-26T21:50:16.067Z,100.00
2019-01-26T21:52:44.697Z,100.00
2019-01-26T21:55:16.540Z,100.00
2019-01-26T21:57:45.624Z,100.00
2019-01-26T22:00:25.477Z,100.00
2019-01-26T22:02:56.948Z,100.00
2019-01-26T22:05:25.617Z,100.00
2019-01-26T22:07:59.748Z,100.00
2019-01-26T22:10:31.013Z,100.00
2019-01-26T22:12:59.631Z,100.00
2019-01-26T22:15:31.518Z,100.00
2019-01-26T22:18:00.139Z,100.00
2019-01-26T22:20:29.374Z,100.00
2019-01-26T22:22:58.818Z,100.00
2019-01-26T22:25:27.531Z,100.00
2019-01-26T22:27:56.724Z,100.00
2019-01-26T22:30:28.170Z,100.00
2019-01-26T22:32:56.795Z,100.00
2019-01-26T22:35:25.456Z,100.00
2019-01-26T22:37:54.120Z,100.00
2019-01-26T22:40:25.121Z,100.00
2019-01-26T22:42:57.000Z,100.00
2019-01-26T22:45:26.065Z,100.00
2019-01-26T22:47:54.698Z,100.00
2019-01-26T22:50:25.733Z,100.00
2019-01-26T22:52:54.740Z,100.00
2019-01-26T22:55:23.616Z,100.00
2019-01-26T22:57:56.140Z,100.00
2019-01-26T23:00:53.727Z,100.00
2019-01-26T23:03:37.166Z,100.00
2019-01-26T23:06:23.712Z,100.00
2019-01-26T23:08:55.564Z,100.00
2019-01-26T23:11:30.220Z,100.00
2019-01-26T23:14:04.574Z,100.00
2019-01-26T23:16:42.101Z,100.00
2019-01-26T23:19:13.712Z,100.00
2019-01-26T23:22:07.907Z,100.00
2019-01-26T23:25:12.762Z,100.00
2019-01-26T23:27:53.368Z,100.00
2019-01-26T23:30:47.386Z,100.00
2019-01-26T23:33:18.789Z,100.00
2019-01-26T23:35:47.418Z,100.00
2019-01-26T23:38:19.016Z,100.00
2019-01-26T23:40:47.735Z,100.00
2019-01-26T23:43:19.525Z,100.00
2019-01-26T23:45:48.139Z,100.00
2019-01-26T23:48:19.828Z,100.00
2019-01-26T23:50:48.496Z,100.00
2019-01-26T23:53:17.075Z,100.00
2019-01-26T23:55:45.749Z,100.00
2019-01-26T23:58:14.304Z,100.00
